createdAt,value
2022-12-25T00:01:14.053Z,99983.81
2022-12-25T00:02:23.881Z,99978.59
2022-12-25T00:03:33.346Z,99984.06
2022-12-25T00:05:59.399Z,99981.78
2022-12-25T00:07:07.913Z,99989.10
2022-12-25T00:09:53.527Z,99976.92
2022-12-25T00:11:06.830Z,99988.85
2022-12-25T00:12:16.041Z,99989.56
2022-12-25T00:14:40.854Z,99982.58
2022-12-25T00:15:51.444Z,99993.78
2022-12-25T00:17:00.347Z,99998.75
2022-12-25T00:19:24.562Z,99996.52
2022-12-25T00:20:33.930Z,99991.11
2022-12-25T00:21:42.865Z,100004.62
2022-12-25T00:22:52.468Z,100003.20
2022-12-25T00:24:03.301Z,100004.13
2022-12-25T00:25:12.737Z,100014.17
2022-12-25T00:27:41.653Z,100009.71
2022-12-25T00:28:56.233Z,100014.34
2022-12-25T00:31:25.247Z,100006.25
2022-12-25T00:33:55.855Z,100004.85
2022-12-25T00:35:06.438Z,100013.16
2022-12-25T00:36:18.402Z,100020.99
2022-12-25T00:37:27.452Z,100012.03
2022-12-25T00:38:39.306Z,100012.92
2022-12-25T00:39:49.348Z,100017.68
2022-12-25T00:40:59.037Z,100013.36
2022-12-25T00:42:19.282Z,100009.81
2022-12-25T00:43:28.951Z,100018.01
2022-12-25T00:44:39.197Z,100014.70
2022-12-25T00:45:59.735Z,100016.87
2022-12-25T00:47:08.931Z,100016.17
2022-12-25T00:48:18.580Z,100015.14
2022-12-25T00:49:27.536Z,100014.58
2022-12-25T00:50:40.910Z,100014.57
2022-12-25T00:51:51.240Z,100009.77
2022-12-25T00:52:59.755Z,100014.01
2022-12-25T00:54:08.683Z,100011.73
2022-12-25T00:55:18.474Z,100013.63
2022-12-25T00:56:28.314Z,100014.01
2022-12-25T00:57:38.049Z,100011.73
2022-12-25T00:58:48.227Z,100012.12
2022-12-25T00:59:57.114Z,100018.66
2022-12-25T01:01:07.205Z,100018.27
2022-12-25T01:02:25.991Z,100014.25
2022-12-25T01:03:35.024Z,100016.45
2022-12-25T01:06:02.437Z,100014.75
2022-12-25T01:07:11.481Z,100018.25
2022-12-25T01:08:20.428Z,100021.52
2022-12-25T01:09:47.562Z,100018.73
2022-12-25T01:12:18.786Z,100016.31
2022-12-25T01:13:29.490Z,100015.45
2022-12-25T01:14:38.033Z,100017.70
2022-12-25T01:15:47.578Z,100018.77
2022-12-25T01:16:57.293Z,100020.43
2022-12-25T01:19:22.702Z,100014.50
2022-12-25T01:20:31.962Z,100020.91
2022-12-25T01:21:41.666Z,100028.41
2022-12-25T01:22:51.073Z,100024.51
2022-12-25T01:24:00.626Z,100026.32
2022-12-25T01:25:11.175Z,100027.41
2022-12-25T01:26:22.995Z,100029.83
2022-12-25T01:27:34.138Z,100028.47
2022-12-25T01:28:53.934Z,100031.17
2022-12-25T01:30:03.043Z,100038.14
2022-12-25T01:31:13.845Z,100027.60
2022-12-25T01:32:23.399Z,100026.47
2022-12-25T01:33:32.064Z,100026.08
2022-12-25T01:34:42.192Z,100029.91
2022-12-25T01:35:50.846Z,100021.52
2022-12-25T01:37:00.211Z,100029.47
2022-12-25T01:38:09.317Z,100027.81
2022-12-25T01:39:18.292Z,100027.33
2022-12-25T01:40:28.315Z,100031.13
2022-12-25T01:41:37.055Z,100031.25
2022-12-25T01:42:46.786Z,100037.75
2022-12-25T01:44:07.017Z,100032.27
2022-12-25T01:45:35.723Z,100031.25
2022-12-25T01:46:46.004Z,100027.90
2022-12-25T01:47:55.579Z,100029.11
2022-12-25T01:50:41.728Z,100036.66
2022-12-25T01:52:04.192Z,100039.91
2022-12-25T01:53:13.925Z,100039.92
2022-12-25T01:55:50.970Z,100038.48
2022-12-25T01:57:03.211Z,100032.73
2022-12-25T01:58:12.500Z,100044.89
2022-12-25T01:59:24.301Z,100040.56
2022-12-25T02:01:49.776Z,100040.86
2022-12-25T02:02:59.501Z,100042.52
2022-12-25T02:04:39.372Z,100036.48
2022-12-25T02:05:49.355Z,100043.16
2022-12-25T02:08:28.852Z,100042.72
2022-12-25T02:09:39.690Z,100042.58
2022-12-25T02:10:49.170Z,100040.08
2022-12-25T02:11:58.708Z,100041.46
2022-12-25T02:13:08.049Z,100039.80
2022-12-25T02:14:17.125Z,100041.00
2022-12-25T02:15:30.485Z,100036.33
2022-12-25T02:16:57.768Z,100037.83
2022-12-25T02:18:13.971Z,100036.97
2022-12-25T02:21:12.112Z,100032.91
2022-12-25T02:22:52.180Z,100043.96
2022-12-25T02:26:00.276Z,100042.67
2022-12-25T02:27:19.491Z,100049.05
2022-12-25T02:28:45.629Z,100048.99
2022-12-25T02:30:05.623Z,100055.39
2022-12-25T02:31:24.655Z,100050.66
2022-12-25T02:35:40.854Z,100050.55
2022-12-25T02:38:23.516Z,100059.56
2022-12-25T02:40:05.171Z,100062.14
2022-12-25T02:41:17.637Z,100060.96
2022-12-25T02:43:05.164Z,100060.28
2022-12-25T02:44:36.013Z,100057.45
2022-12-25T02:46:08.372Z,100060.20
2022-12-25T02:47:40.593Z,100063.40
2022-12-25T02:49:11.830Z,100063.59
2022-12-25T02:50:43.083Z,100059.30
2022-12-25T02:52:32.539Z,100065.23
2022-12-25T02:54:02.751Z,100068.06
2022-12-25T02:57:09.643Z,100075.88
2022-12-25T02:58:42.221Z,100078.97
2022-12-25T03:01:44.070Z,100075.00
2022-12-25T03:03:14.764Z,100085.28
2022-12-25T03:04:43.834Z,100086.05
2022-12-25T03:06:15.688Z,100090.94
2022-12-25T03:07:28.137Z,100082.47
2022-12-25T03:10:21.879Z,100083.34
2022-12-25T03:12:56.768Z,100087.16
2022-12-25T03:14:26.626Z,100092.63
2022-12-25T03:17:10.277Z,100089.55
2022-12-25T03:18:24.420Z,100083.12
2022-12-25T03:22:54.925Z,100084.63
2022-12-25T03:24:24.050Z,100086.08
2022-12-25T03:25:52.503Z,100088.95
2022-12-25T03:27:03.414Z,100094.95
2022-12-25T03:28:12.341Z,100101.44
2022-12-25T03:29:43.662Z,100101.55
2022-12-25T03:31:16.850Z,100105.88
2022-12-25T03:32:41.845Z,100104.00
2022-12-25T03:34:16.514Z,100105.16
2022-12-25T03:37:30.180Z,100108.62
2022-12-25T03:40:45.716Z,100113.88
2022-12-25T03:44:33.974Z,100108.17
2022-12-25T03:46:04.835Z,100116.46
2022-12-25T03:47:46.110Z,100111.41
2022-12-25T03:51:08.891Z,100111.41
2022-12-25T03:52:39.312Z,100118.16
2022-12-25T03:54:10.803Z,100117.98
2022-12-25T03:57:16.450Z,100120.71
2022-12-25T03:58:46.458Z,100120.55
2022-12-25T04:00:14.934Z,100129.42
2022-12-25T04:01:41.940Z,100126.50
2022-12-25T04:04:43.514Z,100125.68
2022-12-25T04:06:12.090Z,100128.83
2022-12-25T04:07:39.469Z,100118.31
2022-12-25T04:09:07.307Z,100121.28
2022-12-25T04:10:35.647Z,100135.66
2022-12-25T04:12:05.271Z,100131.57
2022-12-25T04:13:34.796Z,100127.69
2022-12-25T04:15:01.652Z,100134.64
2022-12-25T04:16:29.906Z,100136.92
2022-12-25T04:17:57.749Z,100135.01
2022-12-25T04:19:24.687Z,100139.11
2022-12-25T04:20:53.010Z,100142.66
2022-12-25T04:22:19.783Z,100145.17
2022-12-25T04:23:48.751Z,100144.85
2022-12-25T04:25:15.479Z,100143.08
2022-12-25T04:26:44.479Z,100146.69
2022-12-25T04:28:12.453Z,100141.81
2022-12-25T04:29:39.208Z,100145.44
2022-12-25T04:31:06.768Z,100142.86
2022-12-25T04:32:34.996Z,100149.42
2022-12-25T04:34:03.260Z,100146.13
2022-12-25T04:35:31.225Z,100159.22
2022-12-25T04:36:40.865Z,100152.59
2022-12-25T04:37:50.599Z,100154.41
2022-12-25T04:38:59.707Z,100157.08
2022-12-25T04:40:10.443Z,100160.74
2022-12-25T04:41:20.028Z,100161.67
2022-12-25T04:44:03.111Z,100162.64
2022-12-25T04:45:11.858Z,100158.55
2022-12-25T04:46:21.966Z,100168.93
2022-12-25T04:47:32.589Z,100166.53
2022-12-25T04:48:42.889Z,100164.69
2022-12-25T04:49:51.893Z,100162.41
2022-12-25T04:52:37.685Z,100176.19
2022-12-25T04:53:48.800Z,100182.50
2022-12-25T04:54:58.044Z,100177.98
2022-12-25T04:56:07.687Z,100179.45
2022-12-25T04:57:17.444Z,100175.39
2022-12-25T04:58:26.345Z,100180.42
2022-12-25T04:59:37.291Z,100184.75
2022-12-25T05:00:46.323Z,100175.79
2022-12-25T05:01:55.535Z,100183.03
2022-12-25T05:03:05.394Z,100182.41
2022-12-25T05:04:16.330Z,100184.82
2022-12-25T05:06:41.541Z,100184.55
2022-12-25T05:09:05.716Z,100189.80
2022-12-25T05:10:15.359Z,100196.47
2022-12-25T05:11:24.495Z,100186.97
2022-12-25T05:13:48.824Z,100184.31
2022-12-25T05:14:57.755Z,100201.25
2022-12-25T05:16:15.690Z,100200.73
2022-12-25T05:17:24.460Z,100206.13
2022-12-25T05:18:35.574Z,100208.11
2022-12-25T05:19:45.219Z,100207.56
2022-12-25T05:20:55.541Z,100210.53
2022-12-25T05:22:04.349Z,100216.56
2022-12-25T05:23:13.388Z,100203.39
2022-12-25T05:24:28.405Z,100208.58
2022-12-25T05:26:55.943Z,100208.19
2022-12-25T05:28:06.739Z,100210.32
2022-12-25T05:29:16.079Z,100208.97
2022-12-25T05:30:26.052Z,100216.63
2022-12-25T05:31:35.140Z,100209.31
2022-12-25T05:33:59.510Z,100210.84
2022-12-25T05:35:12.422Z,100212.13
2022-12-25T05:36:22.005Z,100219.55
2022-12-25T05:37:31.693Z,100221.88
2022-12-25T05:38:41.365Z,100220.89
2022-12-25T05:41:30.728Z,100220.50
2022-12-25T05:42:37.614Z,100217.84
2022-12-25T05:43:46.268Z,100224.48
2022-12-25T05:44:55.928Z,100225.00
2022-12-25T05:46:09.926Z,100226.92
2022-12-25T05:47:19.173Z,100233.66
2022-12-25T05:48:28.717Z,100238.31
2022-12-25T05:49:37.690Z,100229.04
2022-12-25T05:50:46.938Z,100230.56
2022-12-25T05:51:56.676Z,100240.81
2022-12-25T05:53:08.598Z,100239.51
2022-12-25T05:54:18.163Z,100240.03
2022-12-25T05:55:26.787Z,100239.36
2022-12-25T05:56:38.083Z,100248.36
2022-12-25T05:57:47.065Z,100251.32
2022-12-25T05:58:56.873Z,100248.44
2022-12-25T06:01:25.813Z,100248.44
2022-12-25T06:02:36.373Z,100257.09
2022-12-25T06:03:46.711Z,100251.23
2022-12-25T06:04:55.459Z,100253.27
2022-12-25T06:07:19.702Z,100252.15
2022-12-25T06:08:29.237Z,100258.39
2022-12-25T06:09:37.868Z,100258.31
2022-12-25T06:10:47.089Z,100258.94
2022-12-25T06:11:56.166Z,100263.44
2022-12-25T06:13:04.889Z,100256.99
2022-12-25T06:14:16.011Z,100256.99
2022-12-25T06:15:24.537Z,100263.20
2022-12-25T06:16:37.929Z,100264.39
2022-12-25T06:17:44.963Z,100271.25
2022-12-25T06:18:53.644Z,100260.09
2022-12-25T06:20:02.370Z,100270.27
2022-12-25T06:21:13.619Z,100271.92
2022-12-25T06:22:22.873Z,100273.16
2022-12-25T06:23:32.645Z,100276.44
2022-12-25T06:24:43.877Z,100273.85
2022-12-25T06:25:52.460Z,100279.70
2022-12-25T06:27:01.367Z,100283.56
2022-12-25T06:28:11.030Z,100278.28
2022-12-25T06:29:19.799Z,100285.48
2022-12-25T06:30:28.766Z,100277.92
2022-12-25T06:31:38.672Z,100288.50
2022-12-25T06:32:47.996Z,100289.19
2022-12-25T06:33:56.652Z,100281.50
2022-12-25T06:35:07.023Z,100292.28
2022-12-25T06:36:26.112Z,100288.89
2022-12-25T06:37:34.922Z,100289.55
2022-12-25T06:38:44.947Z,100282.88
2022-12-25T06:39:53.976Z,100285.20
2022-12-25T06:41:12.236Z,100281.11
2022-12-25T06:42:21.648Z,100288.45
2022-12-25T06:43:30.444Z,100287.66
2022-12-25T06:44:39.907Z,100283.16
2022-12-25T06:45:50.063Z,100287.30
2022-12-25T06:47:00.121Z,100293.45
2022-12-25T06:48:09.082Z,100293.46
2022-12-25T06:49:17.607Z,100300.03
2022-12-25T06:50:26.356Z,100289.88
2022-12-25T06:51:35.435Z,100299.04
2022-12-25T06:52:44.031Z,100298.09
2022-12-25T06:53:54.232Z,100297.52
2022-12-25T06:55:04.042Z,100301.42
2022-12-25T06:56:16.899Z,100295.42
2022-12-25T06:57:25.949Z,100296.73
2022-12-25T06:58:35.579Z,100307.67
2022-12-25T06:59:49.899Z,100302.69
2022-12-25T07:02:19.589Z,100311.81
2022-12-25T07:03:30.682Z,100315.53
2022-12-25T07:04:41.795Z,100317.52
2022-12-25T07:05:51.467Z,100314.38
2022-12-25T07:07:08.005Z,100317.11
2022-12-25T07:08:11.467Z,100317.11
2022-12-25T07:09:20.470Z,100316.70
2022-12-25T07:10:29.561Z,100316.77
2022-12-25T07:11:38.148Z,100321.17
2022-12-25T07:12:46.649Z,100319.07
2022-12-25T07:13:56.202Z,100324.62
2022-12-25T07:15:06.314Z,100326.68
2022-12-25T07:16:16.679Z,100319.55
2022-12-25T07:17:25.263Z,100335.06
2022-12-25T07:18:35.924Z,100331.53
2022-12-25T07:19:46.336Z,100332.22
2022-12-25T07:20:59.191Z,100332.11
2022-12-25T07:22:08.904Z,100338.13
2022-12-25T07:23:17.531Z,100340.45
2022-12-25T07:24:26.156Z,100337.67
2022-12-25T07:25:37.562Z,100336.75
2022-12-25T07:26:48.876Z,100346.55
2022-12-25T07:27:57.417Z,100347.77
2022-12-25T07:29:06.509Z,100351.97
2022-12-25T07:30:17.875Z,100343.64
2022-12-25T07:31:26.772Z,100362.38
2022-12-25T07:32:35.574Z,100347.83
2022-12-25T07:33:45.339Z,100350.86
2022-12-25T07:34:53.846Z,100349.13
2022-12-25T07:36:04.738Z,100359.19
2022-12-25T07:37:13.261Z,100363.42
2022-12-25T07:38:22.371Z,100351.69
2022-12-25T07:39:31.000Z,100359.66
2022-12-25T07:40:39.688Z,100363.91
2022-12-25T07:41:48.353Z,100357.48
2022-12-25T07:42:58.408Z,100364.73
2022-12-25T07:44:07.379Z,100360.73
2022-12-25T07:45:16.110Z,100365.59
2022-12-25T07:46:26.263Z,100360.41
2022-12-25T07:48:50.131Z,100358.78
2022-12-25T07:49:59.883Z,100359.84
2022-12-25T07:51:12.812Z,100360.66
2022-12-25T07:52:22.037Z,100376.63
2022-12-25T07:53:31.585Z,100368.31
2022-12-25T07:54:40.626Z,100374.56
2022-12-25T07:55:58.575Z,100375.02
2022-12-25T07:57:08.429Z,100370.91
2022-12-25T07:58:23.139Z,100376.70
2022-12-25T07:59:28.548Z,100379.48
2022-12-25T08:01:52.642Z,100380.27
2022-12-25T08:03:02.176Z,100376.50
2022-12-25T08:04:12.274Z,100378.76
2022-12-25T08:05:20.965Z,100386.95
2022-12-25T08:06:32.303Z,100372.42
2022-12-25T08:07:42.180Z,100376.42
2022-12-25T08:08:51.083Z,100377.74
2022-12-25T08:09:59.728Z,100384.02
2022-12-25T08:11:10.258Z,100382.53
2022-12-25T08:13:34.185Z,100382.11
2022-12-25T08:14:43.749Z,100385.19
2022-12-25T08:16:02.259Z,100383.70
2022-12-25T08:17:11.426Z,100385.75
2022-12-25T08:19:35.476Z,100380.45
2022-12-25T08:20:44.703Z,100388.89
2022-12-25T08:21:53.243Z,100383.11
2022-12-25T08:23:03.383Z,100384.05
2022-12-25T08:24:12.212Z,100380.90
2022-12-25T08:25:21.160Z,100383.92
2022-12-25T08:26:30.889Z,100388.06
2022-12-25T08:27:39.398Z,100385.22
2022-12-25T08:28:49.211Z,100395.30
2022-12-25T08:29:57.881Z,100391.36
2022-12-25T08:31:10.675Z,100382.97
2022-12-25T08:32:19.457Z,100384.68
2022-12-25T08:33:30.116Z,100395.89
2022-12-25T08:34:39.013Z,100384.20
2022-12-25T08:35:48.545Z,100390.35
2022-12-25T08:36:57.617Z,100390.89
2022-12-25T08:38:06.877Z,100395.16
2022-12-25T08:39:16.280Z,100395.61
2022-12-25T08:40:25.628Z,100398.55
2022-12-25T08:41:37.777Z,100395.32
2022-12-25T08:42:47.634Z,100401.23
2022-12-25T08:43:56.380Z,100402.75
2022-12-25T08:45:06.484Z,100400.59
2022-12-25T08:47:31.138Z,100393.33
2022-12-25T08:48:45.845Z,100395.19
2022-12-25T08:49:55.000Z,100407.99
2022-12-25T08:52:21.241Z,100404.83
2022-12-25T08:53:29.968Z,100406.44
2022-12-25T08:55:58.523Z,100408.72
2022-12-25T08:57:07.432Z,100412.68
2022-12-25T08:59:31.711Z,100410.90
2022-12-25T09:00:41.028Z,100414.87
2022-12-25T09:03:05.065Z,100410.90
2022-12-25T09:04:13.897Z,100417.11
2022-12-25T09:05:22.680Z,100414.75
2022-12-25T09:06:31.458Z,100413.56
2022-12-25T09:07:39.987Z,100418.46
2022-12-25T09:08:49.811Z,100411.72
2022-12-25T09:09:58.717Z,100414.19
2022-12-25T09:11:11.502Z,100414.88
2022-12-25T09:12:21.885Z,100411.04
2022-12-25T09:13:31.000Z,100415.94
2022-12-25T09:14:39.643Z,100417.34
2022-12-25T09:15:49.614Z,100420.25
2022-12-25T09:16:58.370Z,100419.38
2022-12-25T09:18:08.406Z,100420.93
2022-12-25T09:19:17.145Z,100422.11
2022-12-25T09:20:26.990Z,100409.36
2022-12-25T09:21:36.310Z,100420.08
2022-12-25T09:22:45.910Z,100413.83
2022-12-25T09:23:54.760Z,100421.91
2022-12-25T09:25:04.871Z,100420.63
2022-12-25T09:27:31.733Z,100428.13
2022-12-25T09:28:45.349Z,100430.03
2022-12-25T09:29:52.335Z,100426.09
2022-12-25T09:31:01.021Z,100428.42
2022-12-25T09:32:09.767Z,100435.23
2022-12-25T09:33:19.482Z,100434.57
2022-12-25T09:34:28.546Z,100430.16
2022-12-25T09:35:37.298Z,100434.08
2022-12-25T09:36:46.582Z,100430.35
2022-12-25T09:37:55.096Z,100426.36
2022-12-25T09:39:05.595Z,100431.84
2022-12-25T09:40:18.677Z,100430.66
2022-12-25T09:41:37.812Z,100436.87
2022-12-25T09:44:07.573Z,100445.05
2022-12-25T09:45:19.836Z,100438.06
2022-12-25T09:46:36.977Z,100439.34
2022-12-25T09:47:46.245Z,100442.64
2022-12-25T09:49:05.216Z,100443.44
2022-12-25T09:51:36.281Z,100436.28
2022-12-25T09:55:38.568Z,100446.89
2022-12-25T09:56:48.539Z,100446.13
2022-12-25T10:00:50.652Z,100447.74
2022-12-25T10:04:02.452Z,100451.23
2022-12-25T10:05:36.124Z,100452.36
2022-12-25T10:06:57.942Z,100451.44
2022-12-25T10:08:45.466Z,100449.41
2022-12-25T10:11:40.963Z,100447.41
2022-12-25T10:13:09.784Z,100455.60
2022-12-25T10:14:38.881Z,100452.52
2022-12-25T10:17:30.993Z,100457.55
2022-12-25T10:18:52.717Z,100454.33
2022-12-25T10:20:08.379Z,100458.83
2022-12-25T10:21:18.687Z,100456.16
2022-12-25T10:22:33.591Z,100454.39
2022-12-25T10:25:06.263Z,100444.09
2022-12-25T10:26:19.703Z,100469.48
2022-12-25T10:27:32.991Z,100462.67
2022-12-25T10:28:45.327Z,100455.80
2022-12-25T10:29:54.479Z,100463.95
2022-12-25T10:31:07.263Z,100458.89
2022-12-25T10:33:32.528Z,100461.56
2022-12-25T10:34:43.214Z,100461.30
2022-12-25T10:35:52.488Z,100462.60
2022-12-25T10:37:02.164Z,100468.47
2022-12-25T10:38:19.997Z,100462.05
2022-12-25T10:39:29.816Z,100456.98
2022-12-25T10:40:58.591Z,100465.47
2022-12-25T10:42:19.846Z,100461.49
2022-12-25T10:43:53.164Z,100464.52
2022-12-25T10:46:24.437Z,100459.25
2022-12-25T10:49:00.763Z,100459.31
2022-12-25T10:50:13.773Z,100464.52
2022-12-25T10:51:39.267Z,100470.33
2022-12-25T10:52:55.716Z,100465.00
2022-12-25T10:54:25.163Z,100474.50
2022-12-25T10:55:33.811Z,100466.59
2022-12-25T10:56:58.512Z,100466.12
2022-12-25T10:58:07.120Z,100461.27
2022-12-25T10:59:15.629Z,100464.58
2022-12-25T11:00:30.331Z,100479.77
2022-12-25T11:02:54.587Z,100473.89
2022-12-25T11:04:03.750Z,100468.76
2022-12-25T11:05:31.686Z,100473.75
2022-12-25T11:06:41.237Z,100477.80
2022-12-25T11:07:56.366Z,100481.52
2022-12-25T11:09:11.920Z,100475.86
2022-12-25T11:10:33.902Z,100478.09
2022-12-25T11:12:59.910Z,100481.33
2022-12-25T11:14:12.481Z,100497.42
2022-12-25T11:15:41.118Z,100490.34
2022-12-25T11:16:49.997Z,100487.75
2022-12-25T11:17:58.643Z,100492.67
2022-12-25T11:19:31.150Z,100497.72
2022-12-25T11:20:47.261Z,100502.27
2022-12-25T11:22:01.652Z,100499.53
2022-12-25T11:23:10.173Z,100495.48
2022-12-25T11:24:21.388Z,100498.41
2022-12-25T11:26:54.933Z,100499.39
2022-12-25T11:28:06.006Z,100503.89
2022-12-25T11:29:35.978Z,100508.70
2022-12-25T11:30:48.719Z,100503.97
2022-12-25T11:32:00.587Z,100507.22
2022-12-25T11:33:11.981Z,100506.40
2022-12-25T11:34:38.092Z,100517.42
2022-12-25T11:35:53.467Z,100512.83
2022-12-25T11:37:06.888Z,100507.86
2022-12-25T11:38:15.513Z,100508.71
2022-12-25T11:39:28.258Z,100511.37
2022-12-25T11:40:44.829Z,100509.78
2022-12-25T11:42:00.371Z,100512.22
2022-12-25T11:43:37.165Z,100519.39
2022-12-25T11:45:13.708Z,100517.06
2022-12-25T11:48:10.361Z,100513.84
2022-12-25T11:49:20.914Z,100506.14
2022-12-25T11:50:42.533Z,100505.45
2022-12-25T11:51:55.787Z,100504.59
2022-12-25T11:53:08.454Z,100503.64
2022-12-25T11:55:50.000Z,100509.70
2022-12-25T11:58:37.664Z,100509.72
2022-12-25T12:01:28.066Z,100510.91
2022-12-25T12:02:47.565Z,100519.66
2022-12-25T12:03:59.145Z,100520.58
2022-12-25T12:06:56.663Z,100519.59
2022-12-25T12:08:06.611Z,100537.33
2022-12-25T12:09:31.712Z,100539.16
2022-12-25T12:14:08.807Z,100527.77
2022-12-25T12:16:52.989Z,100537.65
2022-12-25T12:19:40.060Z,100529.44
2022-12-25T12:21:10.232Z,100540.72
2022-12-25T13:02:53.777Z,100567.52
2022-12-25T13:05:48.768Z,100582.85
2022-12-25T13:08:48.828Z,100578.50
2022-12-25T13:11:28.538Z,100579.09
2022-12-25T13:12:38.728Z,100585.05
2022-12-25T13:15:10.797Z,100600.56
2022-12-25T13:16:27.599Z,100606.28
2022-12-25T13:17:37.369Z,100603.91
2022-12-25T13:18:46.973Z,100599.59
2022-12-25T13:19:58.961Z,100605.23
2022-12-25T13:21:10.100Z,100609.55
2022-12-25T13:22:26.181Z,100601.06
2022-12-25T13:23:37.204Z,100609.26
2022-12-25T13:26:14.102Z,100600.73
2022-12-25T13:27:25.419Z,100613.23
2022-12-25T13:28:35.711Z,100607.36
2022-12-25T13:29:44.804Z,100614.20
2022-12-25T13:32:31.433Z,100616.55
2022-12-25T13:33:43.347Z,100626.83
2022-12-25T13:34:53.105Z,100622.89
2022-12-25T13:36:02.846Z,100626.24
2022-12-25T13:37:17.569Z,100629.31
2022-12-25T13:38:27.925Z,100632.98
2022-12-25T13:39:40.653Z,100635.93
2022-12-25T13:41:11.355Z,100635.55
2022-12-25T13:43:42.158Z,100628.48
2022-12-25T13:46:15.043Z,100630.95
2022-12-25T13:47:33.484Z,100641.67
2022-12-25T13:48:44.207Z,100646.08
2022-12-25T13:49:54.455Z,100643.22
2022-12-25T13:51:04.260Z,100656.69
2022-12-25T13:52:16.385Z,100655.67
2022-12-25T13:53:25.976Z,100657.33
2022-12-25T13:54:34.742Z,100654.80
2022-12-25T13:55:47.374Z,100656.52
2022-12-25T13:56:56.329Z,100664.50
2022-12-25T13:58:09.539Z,100659.84
2022-12-25T13:59:21.564Z,100655.00
2022-12-25T14:01:53.591Z,100657.44
2022-12-25T14:03:09.389Z,100661.06
2022-12-25T14:04:24.124Z,100661.04
2022-12-25T14:05:42.363Z,100658.22
2022-12-25T14:06:48.025Z,100650.64
2022-12-25T14:07:59.989Z,100652.53
2022-12-25T14:09:11.106Z,100650.20
2022-12-25T14:10:24.014Z,100660.41
2022-12-25T14:11:32.765Z,100655.58
2022-12-25T14:12:42.606Z,100658.52
2022-12-25T14:15:21.555Z,100663.53
2022-12-25T14:16:32.117Z,100672.13
2022-12-25T14:17:41.407Z,100664.95
2022-12-25T14:20:12.823Z,100677.85
2022-12-25T14:21:34.757Z,100675.14
2022-12-25T14:24:04.029Z,100669.31
2022-12-25T14:25:16.155Z,100674.17
2022-12-25T14:26:29.588Z,100677.96
2022-12-25T14:27:39.736Z,100680.34
2022-12-25T14:28:56.063Z,100683.50
2022-12-25T14:30:08.863Z,100689.41
2022-12-25T14:31:20.361Z,100684.72
2022-12-25T14:33:49.657Z,100682.11
2022-12-25T14:35:05.502Z,100696.53
2022-12-25T14:36:16.149Z,100693.11
2022-12-25T14:37:29.575Z,100692.45
2022-12-25T14:38:41.470Z,100694.34
2022-12-25T14:41:26.560Z,100689.83
2022-12-25T14:42:36.475Z,100699.34
2022-12-25T14:43:55.554Z,100701.96
2022-12-25T14:45:31.659Z,100703.05
2022-12-25T14:46:40.423Z,100694.88
2022-12-25T14:47:55.518Z,100707.89
2022-12-25T14:49:09.187Z,100706.66
2022-12-25T14:51:46.636Z,100712.57
2022-12-25T14:52:58.798Z,100713.64
2022-12-25T14:55:29.528Z,100714.02
2022-12-25T14:56:39.904Z,100709.86
2022-12-25T14:59:12.006Z,100716.49
2022-12-25T15:00:31.250Z,100719.33
2022-12-25T15:01:41.627Z,100716.50
2022-12-25T15:02:53.946Z,100725.75
2022-12-25T15:07:03.931Z,100728.06
2022-12-25T15:09:40.058Z,100723.05
2022-12-25T15:11:05.668Z,100740.04
2022-12-25T15:12:02.272Z,100734.43
2022-12-25T15:13:13.870Z,100734.43
2022-12-25T15:14:23.977Z,100735.78
2022-12-25T15:15:34.295Z,100738.87
2022-12-25T15:18:05.477Z,100745.05
2022-12-25T15:19:37.046Z,100752.53
2022-12-25T15:20:41.683Z,100747.27
2022-12-25T15:21:50.398Z,100755.80
2022-12-25T15:23:19.485Z,100761.67
2022-12-25T15:25:31.989Z,100756.39
2022-12-25T15:26:41.094Z,100751.87
2022-12-25T15:27:50.148Z,100755.06
2022-12-25T15:28:59.758Z,100756.53
2022-12-25T15:30:11.202Z,100760.38
2022-12-25T15:31:24.432Z,100766.03
2022-12-25T15:32:33.890Z,100758.53
2022-12-25T15:33:44.313Z,100763.94
2022-12-25T15:34:53.405Z,100767.77
2022-12-25T15:36:02.275Z,100758.92
2022-12-25T15:37:11.344Z,100760.94
2022-12-25T15:38:19.858Z,100760.84
2022-12-25T15:39:29.340Z,100755.34
2022-12-25T15:40:39.322Z,100757.48
2022-12-25T15:42:07.238Z,100752.68
2022-12-25T15:43:40.564Z,100759.84
2022-12-25T15:44:28.144Z,100754.67
2022-12-25T15:45:37.625Z,100758.19
2022-12-25T15:46:47.138Z,100758.58
2022-12-25T15:47:56.724Z,100765.25
2022-12-25T15:49:06.013Z,100765.72
2022-12-25T15:50:18.653Z,100765.19
2022-12-25T15:51:27.811Z,100767.31
2022-12-25T15:52:36.801Z,100758.40
2022-12-25T15:53:45.805Z,100766.95
2022-12-25T15:54:55.201Z,100762.20
2022-12-25T15:56:05.212Z,100756.04
2022-12-25T15:57:17.964Z,100760.06
2022-12-25T15:58:26.468Z,100759.44
2022-12-25T15:59:35.036Z,100760.94
2022-12-25T16:00:43.901Z,100756.83
2022-12-25T16:01:55.342Z,100760.30
2022-12-25T16:04:21.497Z,100759.44
2022-12-25T16:05:30.116Z,100770.88
2022-12-25T16:06:40.268Z,100772.33
2022-12-25T16:07:49.327Z,100776.25
2022-12-25T16:08:57.951Z,100779.34
2022-12-25T16:10:14.165Z,100779.55
2022-12-25T16:12:38.543Z,100780.53
2022-12-25T16:13:48.995Z,100771.21
2022-12-25T16:14:58.669Z,100771.63
2022-12-25T16:16:07.616Z,100777.98
2022-12-25T16:17:17.151Z,100781.39
2022-12-25T16:18:27.517Z,100778.98
2022-12-25T16:19:37.143Z,100783.38
2022-12-25T16:20:46.641Z,100774.84
2022-12-25T16:21:56.359Z,100772.77
2022-12-25T16:24:20.046Z,100769.36
2022-12-25T16:25:28.556Z,100777.33
2022-12-25T16:26:37.306Z,100769.02
2022-12-25T16:27:46.375Z,100777.02
2022-12-25T16:28:54.910Z,100777.93
2022-12-25T16:30:06.665Z,100778.38
2022-12-25T16:31:15.804Z,100777.77
2022-12-25T16:32:24.384Z,100781.23
2022-12-25T16:33:33.427Z,100775.95
2022-12-25T16:34:42.798Z,100781.98
2022-12-25T16:35:52.152Z,100772.77
2022-12-25T16:37:00.747Z,100780.75
2022-12-25T16:38:12.187Z,100785.98
2022-12-25T16:39:20.507Z,100779.39
2022-12-25T16:40:29.490Z,100778.45
2022-12-25T16:41:38.539Z,100777.17
2022-12-25T16:42:47.313Z,100779.19
2022-12-25T16:43:56.193Z,100781.15
2022-12-25T16:45:06.480Z,100779.42
2022-12-25T16:47:43.454Z,100782.17
2022-12-25T16:48:52.788Z,100784.09
2022-12-25T16:50:04.146Z,100784.05
2022-12-25T16:51:16.539Z,100782.56
2022-12-25T16:52:25.917Z,100785.04
2022-12-25T16:53:35.019Z,100788.12
2022-12-25T16:54:48.542Z,100788.50
2022-12-25T16:57:23.024Z,100777.59
2022-12-25T16:58:33.294Z,100787.98
2022-12-25T16:59:43.431Z,100796.20
2022-12-25T17:00:52.186Z,100785.58
2022-12-25T17:02:01.347Z,100784.00
2022-12-25T17:03:10.924Z,100791.45
2022-12-25T17:04:20.007Z,100788.98
2022-12-25T17:05:28.798Z,100787.55
2022-12-25T17:06:38.334Z,100785.38
2022-12-25T17:07:49.503Z,100789.17
2022-12-25T17:08:59.959Z,100785.89